Time;durP1;ratioP1;P1;durP2;ratioP2;P2;SDS_P1;SDS_P2;PMS_P1;PMS_P2;Temp;Humidity;BMP_temperature;BMP_pressure;BME280_temperature;BME280_humidity;BME280_pressure;Samples;Min_cycle;Max_cycle;Signal;HPM_P1;HPM_P2
2023/12/27 00:01:56;;;;;;;47.38;26.92;;;6.90;99.90;;;;;;4990466;28;20027;-86
2023/12/27 00:04:22;;;;;;;51.85;27.85;;;6.80;99.90;;;;;;4959494;28;20034;-88
2023/12/27 00:06:57;;;;;;;47.47;26.80;;;6.80;99.90;;;;;;4958976;28;20026;-81
2023/12/27 00:09:24;;;;;;;57.28;27.40;;;6.80;99.90;;;;;;4975782;28;20074;-85
2023/12/27 00:11:50;;;;;;;52.67;28.13;;;6.80;99.90;;;;;;4959315;28;20432;-85
2023/12/27 00:14:17;;;;;;;57.13;27.40;;;6.90;99.90;;;;;;4959313;28;20062;-87
2023/12/27 00:16:43;;;;;;;57.50;29.48;;;6.90;99.90;;;;;;4959439;28;20166;-87
2023/12/27 00:19:10;;;;;;;55.47;30.02;;;7.00;99.90;;;;;;4959350;28;20039;-83
2023/12/27 00:21:36;;;;;;;65.07;32.15;;;7.00;99.90;;;;;;4958582;28;20031;-80
2023/12/27 00:24:02;;;;;;;72.80;34.13;;;7.20;99.90;;;;;;4975780;28;20026;-79
2023/12/27 00:26:29;;;;;;;74.90;34.20;;;7.20;99.90;;;;;;4974716;28;20027;-79
2023/12/27 00:28:58;;;;;;;69.43;35.85;;;7.30;99.90;;;;;;4974452;28;20544;-79
2023/12/27 00:31:24;;;;;;;62.25;32.83;;;7.50;99.90;;;;;;4974097;28;20089;-79
2023/12/27 00:33:54;;;;;;;67.55;36.17;;;7.60;99.90;;;;;;4974311;28;20400;-81
2023/12/27 00:36:21;;;;;;;67.07;36.50;;;7.70;99.90;;;;;;4990607;28;20411;-80
2023/12/27 00:38:47;;;;;;;69.47;34.50;;;7.70;99.90;;;;;;4957655;28;20039;-80
2023/12/27 00:41:13;;;;;;;124.13;42.30;;;7.70;99.90;;;;;;4990365;28;20030;-82
2023/12/27 00:43:40;;;;;;;95.05;35.35;;;7.70;99.90;;;;;;4973480;28;20085;-81
2023/12/27 00:46:07;;;;;;;80.35;31.60;;;7.80;99.90;;;;;;4973486;28;20362;-81
2023/12/27 00:48:33;;;;;;;89.30;35.03;;;7.80;99.90;;;;;;4989994;28;20050;-83
2023/12/27 00:51:00;;;;;;;81.38;34.85;;;7.80;99.90;;;;;;4982643;28;20027;-82
2023/12/27 00:53:26;;;;;;;120.97;40.47;;;7.90;99.90;;;;;;4954410;29;20102;-81
2023/12/27 00:55:53;;;;;;;98.97;35.90;;;7.90;99.90;;;;;;4986454;28;20404;-81
2023/12/27 00:58:19;;;;;;;116.78;36.15;;;7.90;99.90;;;;;;4954259;29;20033;-81
2023/12/27 01:00:45;;;;;;;94.28;34.28;;;7.90;99.90;;;;;;4968957;28;20631;-81
2023/12/27 01:03:13;;;;;;;78.13;34.30;;;7.90;99.90;;;;;;4973414;28;20027;-80
2023/12/27 01:05:40;;;;;;;69.05;31.30;;;7.90;99.90;;;;;;4975518;28;20459;-81
2023/12/27 01:08:06;;;;;;;112.88;37.05;;;7.90;99.90;;;;;;4973448;28;20054;-81
2023/12/27 01:10:32;;;;;;;96.82;35.85;;;7.80;99.90;;;;;;4965541;28;20050;-84
2023/12/27 01:12:59;;;;;;;79.93;35.10;;;7.80;99.90;;;;;;4973637;28;20388;-81
2023/12/27 01:15:26;;;;;;;113.25;35.88;;;7.80;99.90;;;;;;4973003;28;20035;-82
2023/12/27 01:17:52;;;;;;;113.43;38.17;;;7.80;99.90;;;;;;4972439;28;20022;-83
2023/12/27 01:20:19;;;;;;;81.10;34.83;;;7.80;99.90;;;;;;4973332;28;20039;-82
2023/12/27 01:22:47;;;;;;;68.35;32.45;;;7.70;99.90;;;;;;4972135;28;20034;-83
2023/12/27 01:25:14;;;;;;;59.22;30.10;;;7.70;99.90;;;;;;4973625;28;20034;-82
2023/12/27 01:27:40;;;;;;;62.58;32.55;;;7.70;99.90;;;;;;4989606;28;20484;-82
2023/12/27 01:30:07;;;;;;;61.55;31.30;;;7.70;99.90;;;;;;4973229;28;20030;-81
2023/12/27 01:32:36;;;;;;;64.50;30.83;;;7.70;99.90;;;;;;4957321;28;20555;-81
2023/12/27 01:35:03;;;;;;;56.33;30.35;;;7.70;99.90;;;;;;4957310;28;20027;-81
2023/12/27 01:37:29;;;;;;;55.78;29.40;;;7.60;99.90;;;;;;4973490;28;20081;-82
2023/12/27 01:39:55;;;;;;;57.55;28.42;;;7.50;99.90;;;;;;4976278;28;20039;-81
2023/12/27 01:42:22;;;;;;;47.65;28.23;;;7.40;99.90;;;;;;4973275;28;20023;-81
2023/12/27 01:44:49;;;;;;;51.95;27.10;;;7.30;99.90;;;;;;4974524;28;20061;-82
2023/12/27 01:47:16;;;;;;;114.43;29.75;;;7.30;99.90;;;;;;4974493;28;20066;-81
2023/12/27 01:49:49;;;;;;;55.90;26.95;;;7.30;99.90;;;;;;4969878;28;20038;-82
2023/12/27 01:52:15;;;;;;;49.83;26.73;;;7.40;99.90;;;;;;4955125;28;20102;-82
2023/12/27 01:54:45;;;;;;;53.72;25.80;;;7.40;99.90;;;;;;4969754;28;20377;-82
2023/12/27 01:57:12;;;;;;;72.32;27.58;;;7.30;99.90;;;;;;4955089;29;20037;-82
2023/12/27 01:59:39;;;;;;;63.83;27.70;;;7.30;99.90;;;;;;4958775;28;20035;-81
2023/12/27 02:02:06;;;;;;;50.42;26.75;;;7.30;99.90;;;;;;4973022;28;20113;-81
2023/12/27 02:04:32;;;;;;;56.60;28.20;;;7.20;99.90;;;;;;4974313;28;20023;-82
2023/12/27 02:07:02;;;;;;;51.17;27.60;;;7.10;99.90;;;;;;4989094;28;20037;-81
2023/12/27 02:09:29;;;;;;;51.72;28.02;;;7.10;99.90;;;;;;4988879;28;20054;-82
2023/12/27 02:11:56;;;;;;;52.85;27.83;;;7.10;99.90;;;;;;4956836;28;20023;-82
2023/12/27 02:14:22;;;;;;;50.80;28.58;;;7.10;99.90;;;;;;4972949;28;20110;-82
2023/12/27 02:16:49;;;;;;;54.00;29.67;;;7.10;99.90;;;;;;4972885;28;20027;-81
2023/12/27 02:19:27;;;;;;;64.13;30.52;;;7.20;99.90;;;;;;4973996;28;20039;-82
2023/12/27 02:21:57;;;;;;;53.05;29.52;;;7.20;99.90;;;;;;4988822;28;20043;-82
2023/12/27 02:24:26;;;;;;;49.67;27.48;;;7.20;99.90;;;;;;4972897;28;20034;-82
2023/12/27 02:26:53;;;;;;;54.15;29.45;;;7.20;99.90;;;;;;4960752;28;20488;-82
2023/12/27 02:29:22;;;;;;;52.85;29.02;;;7.20;99.90;;;;;;4960540;28;20035;-81
2023/12/27 02:31:49;;;;;;;54.67;28.95;;;7.20;99.90;;;;;;4976702;28;20027;-82
2023/12/27 02:34:15;;;;;;;63.38;29.60;;;7.10;99.90;;;;;;4976619;28;20027;-82
2023/12/27 02:36:41;;;;;;;62.78;28.35;;;7.10;99.90;;;;;;4976133;28;20392;-82
2023/12/27 02:39:08;;;;;;;53.67;27.02;;;7.10;99.90;;;;;;4976002;28;20039;-82
2023/12/27 02:41:39;;;;;;;57.67;27.90;;;7.10;99.90;;;;;;4978395;28;20026;-81
2023/12/27 02:44:05;;;;;;;52.22;27.95;;;7.10;99.90;;;;;;4978228;28;20031;-82
2023/12/27 02:46:34;;;;;;;48.13;26.13;;;7.10;99.90;;;;;;4962087;28;20023;-81
2023/12/27 02:49:01;;;;;;;51.85;28.58;;;7.00;99.90;;;;;;4990137;28;20109;-81
2023/12/27 02:51:30;;;;;;;49.15;27.65;;;7.00;99.90;;;;;;4990605;28;20065;-81
2023/12/27 02:53:57;;;;;;;67.03;32.22;;;7.00;99.90;;;;;;4976261;28;20031;-81
2023/12/27 02:56:24;;;;;;;63.10;28.83;;;7.00;99.90;;;;;;4974701;28;20441;-82
2023/12/27 02:58:50;;;;;;;76.95;30.60;;;7.10;99.90;;;;;;4976083;28;20424;-81
2023/12/27 03:01:17;;;;;;;81.57;29.05;;;7.10;99.90;;;;;;4992108;28;20085;-82
2023/12/27 03:03:45;;;;;;;74.45;29.55;;;7.10;99.90;;;;;;4960239;28;20480;-82
2023/12/27 03:06:12;;;;;;;62.33;28.58;;;7.10;99.90;;;;;;4959774;28;21895;-82
2023/12/27 03:08:38;;;;;;;52.42;27.55;;;7.10;99.90;;;;;;4960044;28;20380;-82
2023/12/27 03:11:07;;;;;;;90.25;31.02;;;7.10;99.90;;;;;;4970899;28;20035;-82
2023/12/27 03:13:34;;;;;;;76.30;33.33;;;7.10;99.90;;;;;;4975833;28;20436;-81
2023/12/27 03:16:06;;;;;;;70.97;29.45;;;7.00;99.90;;;;;;4975678;28;20063;-82
2023/12/27 03:18:39;;;;;;;76.93;32.47;;;7.00;99.90;;;;;;4959781;28;20495;-81
2023/12/27 03:21:09;;;;;;;56.58;25.77;;;7.00;99.90;;;;;;4992062;28;20027;-82
2023/12/27 03:23:35;;;;;;;57.55;26.52;;;7.00;99.90;;;;;;4959746;28;20451;-81
2023/12/27 03:26:02;;;;;;;61.72;30.80;;;7.00;99.90;;;;;;4959446;28;20022;-82
2023/12/27 03:28:28;;;;;;;66.95;30.98;;;6.90;99.90;;;;;;4991733;28;20058;-81
2023/12/27 03:30:55;;;;;;;57.95;30.00;;;6.90;99.90;;;;;;4973926;28;20139;-82
2023/12/27 03:33:21;;;;;;;53.47;27.15;;;6.90;99.90;;;;;;4975370;28;20027;-81
2023/12/27 03:35:48;;;;;;;52.28;27.80;;;6.80;99.90;;;;;;4975549;28;20043;-81
2023/12/27 03:38:14;;;;;;;51.78;27.02;;;6.80;99.90;;;;;;4959687;28;20018;-81
2023/12/27 03:40:41;;;;;;;44.15;25.25;;;6.70;99.90;;;;;;4982181;28;20039;-82
2023/12/27 03:43:08;;;;;;;55.45;28.05;;;6.60;99.90;;;;;;4974887;28;20026;-81
2023/12/27 03:45:38;;;;;;;45.03;26.52;;;6.60;99.90;;;;;;4959249;28;20046;-81
2023/12/27 03:48:05;;;;;;;48.45;27.55;;;6.60;99.90;;;;;;4991584;28;20522;-82
2023/12/27 03:50:31;;;;;;;45.70;27.63;;;6.60;99.90;;;;;;4976498;28;20023;-81
2023/12/27 03:52:58;;;;;;;49.80;28.23;;;6.60;99.90;;;;;;4974989;28;20058;-81
2023/12/27 03:55:25;;;;;;;51.15;26.35;;;6.60;99.90;;;;;;4991519;28;20031;-82
2023/12/27 03:57:52;;;;;;;48.40;26.60;;;6.70;99.90;;;;;;4958982;28;20169;-81
2023/12/27 04:00:19;;;;;;;43.83;26.77;;;6.70;99.90;;;;;;4976234;28;20031;-81
2023/12/27 04:02:46;;;;;;;43.33;24.48;;;6.60;99.90;;;;;;4976278;28;20380;-81
2023/12/27 04:05:13;;;;;;;36.33;24.35;;;6.60;99.90;;;;;;4990476;28;20429;-82
2023/12/27 04:07:39;;;;;;;38.22;24.60;;;6.60;99.90;;;;;;4957955;28;20023;-82
2023/12/27 04:10:06;;;;;;;40.88;24.23;;;6.50;99.90;;;;;;4958663;28;20262;-82
2023/12/27 04:12:33;;;;;;;33.63;22.98;;;6.50;99.90;;;;;;4990894;28;20039;-81
2023/12/27 04:14:59;;;;;;;37.00;23.17;;;6.50;99.90;;;;;;4974869;28;20031;-82
2023/12/27 04:17:28;;;;;;;40.72;24.65;;;6.50;99.90;;;;;;4990995;28;20035;-82
2023/12/27 04:19:54;;;;;;;38.22;23.73;;;6.50;99.90;;;;;;4982798;28;20055;-81
2023/12/27 04:22:21;;;;;;;37.97;23.48;;;6.50;99.90;;;;;;4958525;28;20428;-82
2023/12/27 04:24:47;;;;;;;41.65;23.65;;;6.50;99.90;;;;;;4974679;28;20037;-82
2023/12/27 04:27:14;;;;;;;38.50;23.45;;;6.60;99.90;;;;;;4974850;28;20429;-82
2023/12/27 04:29:40;;;;;;;38.90;23.63;;;6.70;99.90;;;;;;4958310;28;20027;-83
2023/12/27 04:32:06;;;;;;;37.45;23.42;;;6.80;99.90;;;;;;4974219;28;20023;-80
2023/12/27 04:34:34;;;;;;;35.80;22.98;;;6.90;99.90;;;;;;4974490;28;20026;-82
2023/12/27 04:37:00;;;;;;;48.75;24.65;;;7.00;99.90;;;;;;4974558;28;20058;-81
2023/12/27 04:39:27;;;;;;;46.35;26.25;;;6.90;99.90;;;;;;4958693;28;20085;-83
2023/12/27 04:41:53;;;;;;;41.25;24.13;;;6.90;99.90;;;;;;4990923;28;20085;-85
2023/12/27 04:44:22;;;;;;;40.17;25.65;;;6.90;99.90;;;;;;4974402;28;20030;-84
2023/12/27 04:46:49;;;;;;;42.70;25.20;;;6.90;99.90;;;;;;4974313;28;20551;-81
2023/12/27 04:49:16;;;;;;;44.65;25.33;;;6.90;99.90;;;;;;4973891;28;20027;-83
2023/12/27 04:51:44;;;;;;;41.50;24.90;;;6.90;99.90;;;;;;4988694;28;20027;-81
2023/12/27 04:54:11;;;;;;;44.78;25.40;;;6.90;99.90;;;;;;4989580;28;20314;-82
2023/12/27 04:56:37;;;;;;;46.45;25.98;;;7.00;99.90;;;;;;4990243;28;20031;-83
2023/12/27 04:59:03;;;;;;;39.70;24.35;;;7.00;99.90;;;;;;4974055;28;20038;-84
2023/12/27 05:01:31;;;;;;;37.35;24.73;;;7.00;99.90;;;;;;4975207;28;20114;-82
2023/12/27 05:03:57;;;;;;;44.40;25.77;;;7.00;99.90;;;;;;4990100;28;20030;-81
2023/12/27 05:06:24;;;;;;;43.55;24.88;;;7.00;99.90;;;;;;4957749;28;20027;-86
2023/12/27 05:08:50;;;;;;;49.47;25.73;;;6.90;99.90;;;;;;4957500;28;20122;-81
2023/12/27 05:11:19;;;;;;;43.22;24.50;;;6.80;99.90;;;;;;4974782;28;20105;-80
2023/12/27 05:13:49;;;;;;;40.97;24.52;;;6.80;99.90;;;;;;4975030;28;20050;-81
2023/12/27 05:16:17;;;;;;;46.03;25.45;;;6.90;99.90;;;;;;4989763;28;20042;-81
2023/12/27 05:18:46;;;;;;;39.97;25.60;;;6.90;99.90;;;;;;4974818;28;20053;-81
2023/12/27 05:21:15;;;;;;;42.92;26.10;;;7.00;99.90;;;;;;4959320;28;20130;-82
2023/12/27 05:23:41;;;;;;;46.58;25.15;;;7.10;99.90;;;;;;4973720;28;20030;-81
2023/12/27 05:26:07;;;;;;;40.63;25.88;;;7.20;99.90;;;;;;4989763;28;20488;-89
2023/12/27 05:28:34;;;;;;;40.00;25.75;;;7.10;99.90;;;;;;4957486;28;20619;-81
2023/12/27 05:31:01;;;;;;;46.25;27.10;;;7.20;99.90;;;;;;4975627;28;20049;-81
2023/12/27 05:33:27;;;;;;;38.20;27.00;;;7.10;99.90;;;;;;4957105;28;20361;-83
2023/12/27 05:35:53;;;;;;;37.25;25.05;;;7.10;99.90;;;;;;4989144;28;20062;-81
2023/12/27 05:38:19;;;;;;;41.75;26.23;;;7.10;99.90;;;;;;4972568;28;20019;-80
2023/12/27 05:40:45;;;;;;;39.75;25.98;;;7.00;99.90;;;;;;4974195;28;20037;-80
2023/12/27 05:43:15;;;;;;;48.33;27.90;;;6.90;99.90;;;;;;4989332;28;20023;-81
2023/12/27 05:45:44;;;;;;;41.17;26.48;;;6.80;99.90;;;;;;4973048;28;20038;-80
2023/12/27 05:48:12;;;;;;;43.25;26.42;;;6.80;99.90;;;;;;4973176;28;20023;-80
2023/12/27 05:50:44;;;;;;;48.97;28.45;;;6.80;99.90;;;;;;4989190;28;20030;-80
2023/12/27 05:53:11;;;;;;;56.47;31.67;;;6.70;99.90;;;;;;4957265;28;20035;-80
2023/12/27 05:55:37;;;;;;;49.95;30.65;;;6.70;99.90;;;;;;4957973;28;20058;-80
2023/12/27 05:58:04;;;;;;;43.38;26.30;;;6.70;99.90;;;;;;4973126;28;20062;-80
2023/12/27 06:00:30;;;;;;;45.30;26.45;;;6.60;99.90;;;;;;4973011;28;20034;-80
2023/12/27 06:02:56;;;;;;;41.53;25.63;;;6.50;99.90;;;;;;4974280;28;20026;-80
2023/12/27 06:05:23;;;;;;;42.33;25.48;;;6.50;99.90;;;;;;4973018;28;20034;-80
2023/12/27 06:07:49;;;;;;;41.20;26.70;;;6.40;99.90;;;;;;4989252;28;20041;-79
2023/12/27 06:10:16;;;;;;;42.85;27.30;;;6.40;99.90;;;;;;4972079;28;20047;-81
2023/12/27 06:12:42;;;;;;;44.03;26.95;;;6.50;99.90;;;;;;4974150;28;20022;-80
2023/12/27 06:15:10;;;;;;;50.55;29.20;;;6.60;99.90;;;;;;4956706;28;20035;-80
2023/12/27 06:17:37;;;;;;;52.90;28.85;;;6.60;99.90;;;;;;4956486;28;20119;-81
2023/12/27 06:20:10;;;;;;;51.15;27.95;;;6.60;99.90;;;;;;4969182;28;20053;-80
2023/12/27 06:22:36;;;;;;;48.25;27.90;;;6.60;99.90;;;;;;4953646;29;20038;-80
2023/12/27 06:25:03;;;;;;;49.10;28.70;;;6.70;99.90;;;;;;4969528;28;20039;-80
2023/12/27 06:27:30;;;;;;;48.72;27.45;;;6.70;99.90;;;;;;4970676;28;20059;-80
2023/12/27 06:29:56;;;;;;;47.08;27.13;;;6.80;99.90;;;;;;4986827;28;20038;-79
2023/12/27 06:32:23;;;;;;;42.95;27.23;;;6.90;99.90;;;;;;4954665;29;20070;-80
2023/12/27 06:34:49;;;;;;;44.90;27.23;;;6.90;99.90;;;;;;4953328;28;20054;-79
2023/12/27 06:37:15;;;;;;;38.90;25.35;;;6.90;99.90;;;;;;4969509;28;20086;-80
2023/12/27 06:39:45;;;;;;;46.17;28.30;;;7.00;99.90;;;;;;4987772;28;20042;-80
2023/12/27 06:42:11;;;;;;;52.88;28.83;;;7.20;99.90;;;;;;4969336;28;20055;-81
2023/12/27 06:44:38;;;;;;;45.70;28.40;;;7.40;99.90;;;;;;4954577;28;20035;-80
2023/12/27 06:47:04;;;;;;;47.92;28.38;;;7.50;99.90;;;;;;4953338;29;20397;-80
2023/12/27 06:49:30;;;;;;;44.10;28.20;;;7.70;99.90;;;;;;4969914;28;20037;-80
2023/12/27 06:51:56;;;;;;;43.80;26.40;;;7.80;99.90;;;;;;4988721;28;20023;-81
2023/12/27 06:54:23;;;;;;;43.05;25.73;;;8.10;99.90;;;;;;4972090;28;20081;-81
2023/12/27 06:56:49;;;;;;;40.45;26.23;;;8.30;99.90;;;;;;4983238;28;20466;-80
2023/12/27 06:59:16;;;;;;;33.50;23.08;;;8.50;99.90;;;;;;4978701;28;20046;-80
2023/12/27 07:01:42;;;;;;;36.67;24.77;;;8.50;99.90;;;;;;4985370;28;20389;-80
2023/12/27 07:04:09;;;;;;;41.95;25.45;;;8.60;99.90;;;;;;4969298;28;20028;-80
2023/12/27 07:06:36;;;;;;;30.60;22.05;;;8.70;99.90;;;;;;4988347;28;20050;-81
2023/12/27 07:09:07;;;;;;;32.83;22.65;;;8.90;99.90;;;;;;4972198;28;20054;-80
2023/12/27 07:11:33;;;;;;;30.05;22.70;;;9.00;99.90;;;;;;4990263;28;20037;-80
2023/12/27 07:13:59;;;;;;;34.17;22.85;;;9.10;99.90;;;;;;4975822;28;20550;-81
2023/12/27 07:16:26;;;;;;;29.35;23.50;;;9.20;99.90;;;;;;4959633;28;20033;-80
2023/12/27 07:18:52;;;;;;;27.95;23.98;;;9.30;99.90;;;;;;4977047;28;20033;-80
2023/12/27 07:21:22;;;;;;;29.65;24.20;;;9.40;99.90;;;;;;4992019;28;20503;-80
2023/12/27 07:23:48;;;;;;;29.73;24.83;;;9.40;99.90;;;;;;4976947;28;20027;-80
2023/12/27 07:26:14;;;;;;;34.28;27.10;;;9.80;99.90;;;;;;4976607;28;20069;-80
2023/12/27 07:28:40;;;;;;;34.85;27.42;;;9.80;99.90;;;;;;4976979;28;20149;-80
2023/12/27 07:31:07;;;;;;;30.45;25.20;;;9.90;99.90;;;;;;4967343;28;20034;-80
2023/12/27 07:33:37;;;;;;;29.55;26.38;;;10.00;99.90;;;;;;4976753;28;20026;-80
2023/12/27 07:36:04;;;;;;;30.88;27.42;;;10.10;99.90;;;;;;4974983;28;20023;-80
2023/12/27 07:38:31;;;;;;;31.95;27.65;;;10.20;99.90;;;;;;4976585;28;20031;-80
2023/12/27 07:40:57;;;;;;;32.28;28.98;;;10.10;99.90;;;;;;4981246;28;20494;-80
2023/12/27 07:43:25;;;;;;;33.20;26.88;;;10.00;99.90;;;;;;4975508;28;20114;-81
2023/12/27 07:45:51;;;;;;;32.45;27.80;;;10.00;99.90;;;;;;4974934;28;20031;-80
2023/12/27 07:48:18;;;;;;;30.67;26.65;;;10.00;99.90;;;;;;4975314;28;20031;-80
2023/12/27 07:50:46;;;;;;;31.48;27.08;;;10.10;99.90;;;;;;4991478;28;20712;-80
2023/12/27 07:53:12;;;;;;;29.45;26.27;;;10.40;99.90;;;;;;4959062;28;20073;-80
2023/12/27 07:55:39;;;;;;;30.50;27.40;;;10.50;99.90;;;;;;4976348;28;20031;-80
2023/12/27 07:58:05;;;;;;;29.15;25.77;;;10.60;99.90;;;;;;4974908;28;20031;-80
2023/12/27 08:00:32;;;;;;;30.55;27.13;;;10.80;99.90;;;;;;4970820;28;20481;-81
2023/12/27 08:02:58;;;;;;;35.38;29.33;;;11.00;99.90;;;;;;4971862;28;20082;-80
2023/12/27 08:05:25;;;;;;;36.55;29.95;;;11.30;99.90;;;;;;4986764;28;20031;-81
2023/12/27 08:07:52;;;;;;;32.03;28.15;;;11.40;99.90;;;;;;4976337;28;20051;-80
2023/12/27 08:10:18;;;;;;;32.10;27.63;;;11.50;99.90;;;;;;4972365;28;20532;-81
2023/12/27 08:12:46;;;;;;;38.92;28.67;;;11.50;99.90;;;;;;4971599;28;20058;-80
2023/12/27 08:15:16;;;;;;;31.15;27.77;;;11.60;99.90;;;;;;4983858;28;20085;-80
2023/12/27 08:17:42;;;;;;;35.15;29.55;;;11.80;99.90;;;;;;4975987;28;20027;-80
2023/12/27 08:20:10;;;;;;;30.80;27.70;;;11.90;99.90;;;;;;4988635;28;20043;-81
2023/12/27 08:22:36;;;;;;;34.58;28.45;;;12.10;99.90;;;;;;4983751;28;20031;-80
2023/12/27 08:25:12;;;;;;;35.25;31.45;;;12.20;99.90;;;;;;4990791;28;20055;-80
2023/12/27 08:27:42;;;;;;;34.28;29.90;;;12.60;99.90;;;;;;4990811;28;20058;-83
2023/12/27 08:30:08;;;;;;;34.22;30.67;;;12.60;99.90;;;;;;4974905;28;20023;-81
2023/12/27 08:32:35;;;;;;;33.80;30.08;;;12.70;99.90;;;;;;4975472;28;20233;-81
2023/12/27 08:35:01;;;;;;;39.45;32.60;;;12.80;99.90;;;;;;4958282;28;20058;-80
2023/12/27 08:37:31;;;;;;;37.40;33.45;;;12.80;99.90;;;;;;4990609;28;20449;-80
2023/12/27 08:39:57;;;;;;;38.50;32.90;;;12.80;99.90;;;;;;4974322;28;20031;-80
2023/12/27 08:42:23;;;;;;;36.63;32.60;;;12.90;99.90;;;;;;4957782;28;20074;-81
2023/12/27 08:44:51;;;;;;;39.40;33.78;;;13.00;99.90;;;;;;4981828;28;20031;-81
2023/12/27 08:47:19;;;;;;;36.75;32.67;;;13.00;99.90;;;;;;4990417;28;20117;-81
2023/12/27 08:49:45;;;;;;;36.65;33.05;;;13.10;99.90;;;;;;4989848;28;20082;-81
2023/12/27 08:52:12;;;;;;;36.30;32.38;;;13.20;99.90;;;;;;4989477;28;20058;-81
2023/12/27 08:54:39;;;;;;;35.63;32.15;;;13.20;99.90;;;;;;4974645;28;20030;-81
2023/12/27 08:57:08;;;;;;;36.83;33.08;;;13.30;99.90;;;;;;4974915;28;20058;-84
2023/12/27 08:59:36;;;;;;;36.28;32.50;;;13.40;99.90;;;;;;4989765;28;20041;-81
2023/12/27 09:02:04;;;;;;;38.35;31.65;;;13.50;99.90;;;;;;4972475;28;20027;-83
2023/12/27 09:04:30;;;;;;;34.47;30.20;;;13.60;99.90;;;;;;4975668;28;20054;-84
2023/12/27 09:06:58;;;;;;;32.13;29.08;;;13.70;99.90;;;;;;4990286;28;20121;-82
2023/12/27 09:09:25;;;;;;;33.55;30.10;;;13.80;99.90;;;;;;4995761;28;20510;-82
2023/12/27 09:11:52;;;;;;;32.40;29.00;;;14.00;99.90;;;;;;4977433;28;20042;-82
2023/12/27 09:14:18;;;;;;;37.55;30.60;;;13.90;99.90;;;;;;4991255;28;20061;-82
2023/12/27 09:16:45;;;;;;;34.92;29.48;;;14.00;99.90;;;;;;4973598;28;20035;-81
2023/12/27 09:19:12;;;;;;;32.08;28.85;;;14.00;99.90;;;;;;4973517;28;20559;-82
2023/12/27 09:21:48;;;;;;;31.50;28.38;;;14.10;99.90;;;;;;4967272;28;20027;-82
2023/12/27 09:24:14;;;;;;;32.92;27.92;;;14.20;99.90;;;;;;4973544;28;20430;-84
2023/12/27 09:26:40;;;;;;;30.83;27.80;;;14.40;99.90;;;;;;4972983;28;20108;-84
2023/12/27 09:29:09;;;;;;;33.78;30.30;;;14.40;99.90;;;;;;4973443;28;20026;-82
2023/12/27 09:31:36;;;;;;;33.67;29.67;;;14.50;99.90;;;;;;4973066;28;20030;-82
2023/12/27 09:34:05;;;;;;;40.72;30.70;;;14.40;99.90;;;;;;4989024;28;20078;-82
2023/12/27 09:36:32;;;;;;;39.60;32.25;;;14.40;99.90;;;;;;4957487;28;20042;-88
2023/12/27 09:38:59;;;;;;;40.33;31.88;;;14.20;99.90;;;;;;4957015;28;20369;-87
2023/12/27 09:41:29;;;;;;;35.88;29.42;;;14.20;99.90;;;;;;4961302;28;20031;-82
2023/12/27 09:43:57;;;;;;;36.08;30.42;;;14.20;99.90;;;;;;4973037;28;20050;-82
2023/12/27 09:46:28;;;;;;;43.30;29.55;;;14.20;99.90;;;;;;4961744;28;20073;-82
2023/12/27 09:48:54;;;;;;;37.25;29.30;;;14.30;99.90;;;;;;4975330;28;20041;-82
2023/12/27 09:51:23;;;;;;;31.27;27.67;;;14.50;99.90;;;;;;4992729;28;20447;-81
2023/12/27 09:53:51;;;;;;;32.75;26.77;;;14.40;99.90;;;;;;4981731;28;20034;-82
2023/12/27 09:56:19;;;;;;;33.65;27.02;;;14.70;99.90;;;;;;4981047;28;20019;-81
2023/12/27 09:58:49;;;;;;;32.90;28.15;;;14.70;99.90;;;;;;4991766;28;20532;-82
2023/12/27 10:01:19;;;;;;;30.85;26.83;;;14.80;99.90;;;;;;4974711;28;20027;-82
2023/12/27 10:03:53;;;;;;;32.38;26.00;;;14.60;99.90;;;;;;4974510;28;20059;-83
2023/12/27 10:06:43;;;;;;;28.05;24.75;;;14.60;99.90;;;;;;4973351;28;20113;-83
2023/12/27 10:09:11;;;;;;;28.70;23.13;;;14.70;99.90;;;;;;4973851;28;20054;-84
2023/12/27 10:11:41;;;;;;;29.02;22.20;;;14.70;99.90;;;;;;4974976;28;20138;-86
2023/12/27 10:14:09;;;;;;;24.27;21.70;;;14.80;99.90;;;;;;4972433;28;20030;-85
2023/12/27 10:16:36;;;;;;;24.63;22.02;;;15.00;99.90;;;;;;4972386;28;20463;-84
2023/12/27 10:19:07;;;;;;;24.70;22.17;;;15.20;99.90;;;;;;4956610;28;20054;-84
2023/12/27 10:21:43;;;;;;;29.45;23.27;;;15.00;99.90;;;;;;4956378;28;20551;-84
2023/12/27 10:24:10;;;;;;;26.35;22.27;;;15.00;99.90;;;;;;4957992;28;20038;-84
2023/12/27 10:26:37;;;;;;;24.35;21.70;;;14.80;99.90;;;;;;4956885;28;20439;-89
2023/12/27 10:29:04;;;;;;;23.67;20.70;;;14.70;99.90;;;;;;4955869;28;20555;-83
2023/12/27 10:31:30;;;;;;;22.25;20.05;;;14.80;99.90;;;;;;4963778;28;20034;-84
2023/12/27 10:34:02;;;;;;;23.73;18.52;;;14.90;99.90;;;;;;4973477;28;20054;-84
2023/12/27 10:36:30;;;;;;;24.52;18.13;;;15.10;99.90;;;;;;4988843;28;20030;-87
2023/12/27 10:39:04;;;;;;;20.75;18.83;;;15.40;99.90;;;;;;4968088;28;20493;-84
2023/12/27 10:41:33;;;;;;;26.33;20.40;;;15.30;99.90;;;;;;4964134;28;20122;-84
2023/12/27 10:44:00;;;;;;;23.77;20.45;;;15.20;99.90;;;;;;4972477;28;20042;-84
2023/12/27 10:46:26;;;;;;;29.08;20.13;;;15.10;99.90;;;;;;4951577;28;20391;-84
2023/12/27 10:48:58;;;;;;;26.95;19.27;;;15.10;99.90;;;;;;4957386;29;20083;-84
2023/12/27 10:51:28;;;;;;;24.58;20.13;;;15.20;99.90;;;;;;4969222;28;20035;-83
2023/12/27 10:54:00;;;;;;;21.55;19.10;;;15.20;99.90;;;;;;4982388;28;20031;-84
2023/12/27 10:56:26;;;;;;;23.58;19.92;;;15.20;99.90;;;;;;5006310;28;20038;-83
2023/12/27 10:58:53;;;;;;;24.85;20.27;;;15.00;99.90;;;;;;4982549;28;20691;-87
2023/12/27 11:01:20;;;;;;;23.15;19.35;;;14.90;99.90;;;;;;4977298;28;20039;-85
2023/12/27 11:03:47;;;;;;;30.58;20.70;;;14.90;99.90;;;;;;4977393;28;20027;-89
2023/12/27 11:06:17;;;;;;;20.33;18.25;;;15.00;99.90;;;;;;4976964;28;20027;-87
2023/12/27 11:08:45;;;;;;;19.27;17.38;;;15.20;99.90;;;;;;4976394;28;20031;-86
2023/12/27 11:11:13;;;;;;;18.55;16.77;;;15.50;99.90;;;;;;4970799;28;20062;-88
2023/12/27 11:13:41;;;;;;;21.42;18.75;;;15.80;99.90;;;;;;4960542;28;20027;-87
2023/12/27 11:16:08;;;;;;;21.65;18.98;;;15.80;99.90;;;;;;4960926;28;20065;-87
2023/12/27 11:18:35;;;;;;;19.80;18.00;;;15.40;99.90;;;;;;4961307;28;20027;-86
2023/12/27 11:21:02;;;;;;;23.58;17.08;;;15.20;99.90;;;;;;4964369;28;20038;-87
2023/12/27 11:23:28;;;;;;;18.80;16.70;;;15.30;99.90;;;;;;4976946;28;20038;-86
2023/12/27 11:25:59;;;;;;;20.92;16.75;;;15.30;99.90;;;;;;4960921;28;20146;-87
2023/12/27 11:28:32;;;;;;;20.63;17.35;;;15.50;99.90;;;;;;4961122;28;20488;-88
2023/12/27 11:30:58;;;;;;;19.45;17.40;;;15.60;99.90;;;;;;4961586;28;20035;-90
2023/12/27 11:33:24;;;;;;;25.13;17.25;;;15.70;99.90;;;;;;4961172;28;20030;-88
2023/12/27 11:35:51;;;;;;;20.17;17.85;;;15.50;99.90;;;;;;4963826;28;20052;-86
2023/12/27 11:38:20;;;;;;;22.63;18.38;;;15.40;99.90;;;;;;4960419;28;20488;-88
2023/12/27 11:40:48;;;;;;;19.42;17.63;;;15.20;99.90;;;;;;4973419;28;20373;-87
2023/12/27 11:43:54;;;;;;;25.92;17.50;;;15.20;99.90;;;;;;4976005;28;20106;-87
2023/12/27 11:46:28;;;;;;;18.65;16.85;;;15.20;99.90;;;;;;4960061;28;20405;-88
2023/12/27 11:48:54;;;;;;;;;;;15.50;99.90;;;;;;4960374;28;20030;-88
2023/12/27 11:51:35;;;;;;;18.88;16.85;;;15.80;99.90;;;;;;4991746;28;19941;-86
2023/12/27 11:54:07;;;;;;;21.20;16.83;;;15.90;99.90;;;;;;4975897;28;20508;-85
2023/12/27 11:56:36;;;;;;;22.08;17.05;;;16.00;99.90;;;;;;4958967;28;20023;-86
2023/12/27 11:59:06;;;;;;;20.13;18.10;;;15.90;99.90;;;;;;4958578;28;20031;-86
2023/12/27 12:01:35;;;;;;;23.80;19.13;;;15.70;99.90;;;;;;4965916;28;20039;-86
2023/12/27 12:04:35;;;;;;;24.45;19.20;;;15.40;99.90;;;;;;4975592;28;20026;-87
2023/12/27 12:07:24;;;;;;;18.60;16.83;;;15.30;99.90;;;;;;4975684;28;20089;-86
2023/12/27 12:09:50;;;;;;;17.88;15.98;;;15.40;99.90;;;;;;4991839;28;20043;-86
2023/12/27 12:12:22;;;;;;;18.42;16.27;;;15.30;99.90;;;;;;4975429;28;20027;-85
2023/12/27 12:14:55;;;;;;;18.25;16.45;;;15.20;99.90;;;;;;4975711;28;20031;-86
2023/12/27 12:17:22;;;;;;;19.97;16.57;;;15.20;99.90;;;;;;4994241;28;20030;-89
2023/12/27 12:19:50;;;;;;;20.33;17.02;;;15.20;99.90;;;;;;4957091;28;20062;-88
2023/12/27 12:22:18;;;;;;;27.95;16.50;;;15.30;99.90;;;;;;4951602;28;20059;-87
2023/12/27 12:24:44;;;;;;;19.98;16.00;;;15.40;99.90;;;;;;4956310;28;20050;-86
2023/12/27 12:27:15;;;;;;;18.67;16.73;;;15.40;99.90;;;;;;4955002;29;20120;-86
2023/12/27 12:29:41;;;;;;;19.02;17.27;;;15.50;99.90;;;;;;4974425;28;20546;-88
2023/12/27 12:32:07;;;;;;;17.90;16.40;;;15.60;99.90;;;;;;4959280;28;20049;-87
2023/12/27 12:34:34;;;;;;;27.27;18.88;;;15.60;99.90;;;;;;4959672;28;20026;-86
2023/12/27 12:37:00;;;;;;;18.42;16.42;;;15.60;99.90;;;;;;4959376;28;20094;-86